СИЛА РОССИИ. Форум сайта «Отвага» (www.otvaga2004.ru)

Информация о пользователе

Привет, Гость! Войдите или зарегистрируйтесь.


Вы здесь » СИЛА РОССИИ. Форум сайта «Отвага» (www.otvaga2004.ru) » Вооружение сухопутных войск


Вооружение сухопутных войск

Тем 1 страница 30 из 168

Тема Ответов Просмотров Последнее сообщение
783 33746 Вчера 16:12:25  Retiv
506 55634 Вчера 05:35:03  cromeshnic
722 42960 2018-10-14 21:12:53  kinetic
601 97641 2018-10-14 14:11:14  Сергей-1982
486 73247 2018-10-14 09:12:55  mpopenker
869 55556 2018-10-13 12:26:33  DAK
954 156097 2018-10-12 21:18:19  Organic
274 23947 2018-10-12 16:22:03  Realist
777 134286 2018-10-08 22:05:59  vasya83
19 1535 2018-10-08 16:20:24  Astax
614 47361 2018-10-08 14:06:12  Роман
747 111002 2018-10-07 22:24:04  KORVIN
942 107176 2018-10-06 18:22:46  DPD
252 29161 2018-10-04 18:47:21  DAK
298 27991 2018-10-03 19:54:47  scout
135 14734 2018-09-30 20:54:10  scout
413 61180 2018-09-30 18:34:47  АК74М
18 Боевые роботы 2  Шестопер
13 3263 2018-09-28 09:31:09  Wind
403 82683 2018-09-27 20:34:16  Fritz
107 8788 2018-09-27 09:28:15  Кибальчиш
479 56858 2018-09-25 22:12:27  mpopenker
264 53788 2018-09-24 19:24:18  gfst
961 76196 2018-09-19 16:09:44  Wind
56 3883 2018-09-18 23:21:14  Retiv
178 36806 2018-09-18 10:38:27  Wind
511 53621 2018-09-15 00:23:36  Smag
154 5545 2018-09-13 20:23:44  Oleg7700
36 8543 2018-09-10 13:56:35  Dobryak
12 2214 2018-09-05 00:14:50  humanitarius
874 35265 2018-08-30 03:26:26  Вася Васильевич

Вы здесь » СИЛА РОССИИ. Форум сайта «Отвага» (www.otvaga2004.ru) » Вооружение сухопутных войск